createdAt,value
2022-11-19T00:01:30.877Z,98440.31
2022-11-19T00:05:32.294Z,98448.91
2022-11-19T00:09:33.595Z,98451.53
2022-11-19T00:13:35.368Z,98448.97
2022-11-19T00:17:36.612Z,98452.44
2022-11-19T00:21:37.928Z,98449.84
2022-11-19T00:25:39.232Z,98455.88
2022-11-19T00:29:40.570Z,98455.84
2022-11-19T00:33:42.416Z,98443.81
2022-11-19T00:37:43.692Z,98441.22
2022-11-19T00:41:44.936Z,98443.75
2022-11-19T00:45:46.285Z,98443.81
2022-11-19T00:49:47.608Z,98434.34
2022-11-19T00:53:49.456Z,98432.56
2022-11-19T00:57:50.751Z,98444.63
2022-11-19T01:01:52.262Z,98449.81
2022-11-19T01:05:53.763Z,98450.66
2022-11-19T01:09:55.490Z,98452.38
2022-11-19T01:13:57.401Z,98459.28
2022-11-19T01:17:58.659Z,98459.28
2022-11-19T01:21:59.891Z,98468.72
2022-11-19T01:26:01.658Z,98464.44
2022-11-19T01:30:04.206Z,98468.75
2022-11-19T01:34:05.473Z,98473.03
2022-11-19T01:38:07.070Z,98478.19
2022-11-19T01:42:38.362Z,98475.59
2022-11-19T01:46:39.746Z,98481.63
2022-11-19T01:50:52.783Z,98489.41
2022-11-19T01:54:55.503Z,98485.13
2022-11-19T01:59:02.679Z,98475.66
2022-11-19T02:03:04.023Z,98472.19
2022-11-19T02:07:06.754Z,98478.25
2022-11-19T02:11:14.047Z,98473.09
2022-11-19T02:15:21.779Z,98477.44
2022-11-19T02:19:52.303Z,98481.78
2022-11-19T02:24:21.055Z,98473.13
2022-11-19T02:28:25.282Z,98474.81
2022-11-19T02:32:34.347Z,98481.69
2022-11-19T02:36:42.732Z,98471.31
2022-11-19T02:40:48.639Z,98479.94
2022-11-19T02:45:01.760Z,98479.06
2022-11-19T02:49:04.169Z,98479.06
2022-11-19T02:53:05.636Z,98485.97
2022-11-19T02:57:09.607Z,98485.97
2022-11-19T03:01:29.759Z,98485.09
2022-11-19T03:05:33.358Z,98488.53
2022-11-19T03:09:37.688Z,98481.66
2022-11-19T03:14:05.011Z,98480.78
2022-11-19T03:18:10.179Z,98481.66
2022-11-19T03:22:11.610Z,98472.22
2022-11-19T03:26:33.926Z,98484.28
2022-11-19T03:30:36.597Z,98485.19
2022-11-19T03:34:39.469Z,98489.53
2022-11-19T03:38:43.622Z,98491.31
2022-11-19T03:42:47.251Z,98483.56
2022-11-19T03:46:52.970Z,98490.50
2022-11-19T03:50:56.629Z,98499.16
2022-11-19T03:54:57.951Z,98500.88
2022-11-19T03:58:59.895Z,98496.63
2022-11-19T04:03:01.326Z,98509.53
2022-11-19T04:07:32.140Z,98505.25
2022-11-19T04:11:33.624Z,98512.16
2022-11-19T04:15:35.052Z,98514.78
2022-11-19T04:19:37.186Z,98519.09
2022-11-19T04:23:38.467Z,98515.66
2022-11-19T04:27:39.780Z,98519.94
2022-11-19T04:31:41.231Z,98518.22
2022-11-19T04:35:44.659Z,98520.75
2022-11-19T04:39:45.978Z,98521.63
2022-11-19T04:43:47.795Z,98524.25
2022-11-19T04:47:49.087Z,98523.38
2022-11-19T04:51:50.407Z,98519.09
2022-11-19T04:55:51.767Z,98524.34
2022-11-19T04:59:53.480Z,98514.03
2022-11-19T05:03:54.762Z,98517.56
2022-11-19T05:07:56.034Z,98523.72
2022-11-19T05:11:57.308Z,98518.66
2022-11-19T05:15:58.778Z,98523.88
2022-11-19T05:20:00.256Z,98518.75
2022-11-19T05:24:01.587Z,98519.69
2022-11-19T05:28:02.863Z,98515.41
2022-11-19T05:32:04.324Z,98524.03
2022-11-19T05:36:06.052Z,98529.19
2022-11-19T05:40:08.198Z,98536.06
2022-11-19T05:44:09.534Z,98530.06
2022-11-19T05:48:11.259Z,98530.94
2022-11-19T05:52:12.601Z,98541.25
2022-11-19T05:56:13.977Z,98536.97
2022-11-19T06:00:16.523Z,98532.66
2022-11-19T06:04:17.949Z,98537.81
2022-11-19T06:08:19.265Z,98541.25
2022-11-19T06:12:20.847Z,98536.97
2022-11-19T06:16:22.140Z,98545.53
2022-11-19T06:20:23.416Z,98548.09
2022-11-19T06:24:24.850Z,98549.00
2022-11-19T06:28:26.442Z,98547.25
2022-11-19T06:32:27.775Z,98553.28
2022-11-19T06:36:32.899Z,98548.97
2022-11-19T06:40:38.686Z,98559.28
2022-11-19T06:44:40.136Z,98566.13
2022-11-19T06:48:41.939Z,98567.88
2022-11-19T06:52:43.435Z,98576.47
2022-11-19T06:56:44.719Z,98574.75
2022-11-19T07:00:47.157Z,98575.59
2022-11-19T07:04:48.770Z,98581.59
2022-11-19T07:08:50.471Z,98589.31
2022-11-19T07:12:51.727Z,98594.47
2022-11-19T07:16:53.546Z,98596.22
2022-11-19T07:20:54.848Z,98609.94
2022-11-19T07:24:56.131Z,98609.91
2022-11-19T07:29:04.409Z,98615.06
2022-11-19T07:33:06.476Z,98615.91
2022-11-19T07:37:07.734Z,98610.72
2022-11-19T07:41:28.023Z,98614.19
2022-11-19T07:45:29.375Z,98629.63
2022-11-19T07:49:30.730Z,98633.91
2022-11-19T07:53:32.046Z,98636.47
2022-11-19T07:57:33.753Z,98641.63
2022-11-19T08:01:35.077Z,98642.50
2022-11-19T08:05:38.211Z,98651.06
2022-11-19T08:09:39.808Z,98650.19
2022-11-19T08:13:41.775Z,98655.34
2022-11-19T08:18:01.704Z,98657.06
2022-11-19T08:22:03.049Z,98670.81
2022-11-19T08:26:06.903Z,98674.25
2022-11-19T08:30:08.732Z,98669.06
2022-11-19T08:34:10.033Z,98665.59
2022-11-19T08:38:11.413Z,98659.56
2022-11-19T08:42:31.555Z,98661.28
2022-11-19T08:46:32.882Z,98663.84
2022-11-19T08:50:34.148Z,98662.94
2022-11-19T08:54:35.424Z,98659.47
2022-11-19T08:58:37.014Z,98667.16
2022-11-19T09:02:38.666Z,98667.97
2022-11-19T09:06:40.071Z,98667.00
2022-11-19T09:10:41.924Z,98671.28
2022-11-19T09:14:43.151Z,98681.59
2022-11-19T09:18:44.507Z,98675.50
2022-11-19T09:22:47.305Z,98684.03
2022-11-19T09:26:52.641Z,98683.97
2022-11-19T09:30:55.600Z,98694.22
2022-11-19T09:34:56.944Z,98695.06
2022-11-19T09:38:58.507Z,98695.03
2022-11-19T09:43:01.695Z,98700.16
2022-11-19T09:47:21.899Z,98705.38
2022-11-19T09:51:29.064Z,98712.22
2022-11-19T09:55:32.501Z,98710.47
2022-11-19T09:59:37.882Z,98703.53
2022-11-19T10:03:40.459Z,98710.38
2022-11-19T10:07:44.055Z,98710.31
2022-11-19T10:12:08.881Z,98696.47
2022-11-19T10:16:16.901Z,98694.78
2022-11-19T10:20:43.447Z,98705.97
2022-11-19T10:24:50.841Z,98699.97
2022-11-19T10:28:56.933Z,98700.88
2022-11-19T10:33:03.534Z,98701.78
2022-11-19T10:37:10.029Z,98701.78
2022-11-19T10:41:11.655Z,98706.97
2022-11-19T10:45:16.159Z,98712.09
2022-11-19T10:49:18.548Z,98704.31
2022-11-19T10:53:25.086Z,98705.97
2022-11-19T10:57:29.606Z,98700.78
2022-11-19T11:01:38.680Z,98692.19
2022-11-19T11:06:06.818Z,98700.81
2022-11-19T11:10:24.884Z,98690.53
2022-11-19T11:14:44.982Z,98687.84
2022-11-19T11:18:48.019Z,98685.06
2022-11-19T11:22:50.708Z,98685.88
2022-11-19T11:27:12.520Z,98687.63
2022-11-19T11:31:27.090Z,98686.81
2022-11-19T11:35:30.735Z,98684.25
2022-11-19T11:39:35.143Z,98683.34
2022-11-19T11:43:39.255Z,98689.41
2022-11-19T11:47:41.358Z,98696.28
2022-11-19T11:51:43.227Z,98686.78
2022-11-19T11:55:45.893Z,98686.91
2022-11-19T11:59:48.164Z,98682.53
2022-11-19T12:03:55.459Z,98681.63
2022-11-19T12:08:04.077Z,98679.91
2022-11-19T12:12:44.139Z,98685.13
2022-11-19T12:16:54.781Z,98670.50
2022-11-19T12:21:01.257Z,98674.75
2022-11-19T12:25:12.790Z,98676.50
2022-11-19T12:29:17.742Z,98680.00
2022-11-19T12:33:20.484Z,98678.22
2022-11-19T12:37:25.401Z,98675.72
2022-11-19T12:41:50.338Z,98673.97
2022-11-19T12:46:03.902Z,98670.44
2022-11-19T12:50:24.118Z,98676.47
2022-11-19T12:54:33.484Z,98673.00
2022-11-19T12:58:51.063Z,98672.09
2022-11-19T13:03:11.825Z,98678.16
2022-11-19T13:07:23.159Z,98684.22
2022-11-19T13:11:36.676Z,98682.47
2022-11-19T13:15:42.838Z,98690.25
2022-11-19T13:19:46.275Z,98688.50
2022-11-19T13:23:48.556Z,98692.81
2022-11-19T13:27:52.124Z,98686.78
2022-11-19T13:32:01.922Z,98692.00
2022-11-19T13:36:09.014Z,98698.88
2022-11-19T13:40:19.457Z,98698.00
2022-11-19T13:44:41.111Z,98695.41
2022-11-19T13:48:48.546Z,98693.63
2022-11-19T13:52:57.661Z,98691.91
2022-11-19T13:56:59.568Z,98694.47
2022-11-19T14:01:07.954Z,98702.22
2022-11-19T14:05:23.543Z,98700.47
2022-11-19T14:09:43.920Z,98702.16
2022-11-19T14:14:03.998Z,98700.41
2022-11-19T14:18:42.076Z,98701.28
2022-11-19T14:23:11.679Z,98698.69
2022-11-19T14:27:19.440Z,98695.28
2022-11-19T14:31:21.306Z,98703.88
2022-11-19T14:35:25.985Z,98697.78
2022-11-19T14:39:29.226Z,98699.44
2022-11-19T14:43:49.379Z,98702.91
2022-11-19T14:47:50.781Z,98696.84
2022-11-19T14:51:56.730Z,98699.44
2022-11-19T14:55:59.906Z,98696.94
2022-11-19T15:00:07.531Z,98700.44
2022-11-19T15:04:12.011Z,98705.63
2022-11-19T15:08:16.291Z,98713.47
2022-11-19T15:12:21.388Z,98709.22
2022-11-19T15:16:25.670Z,98717.00
2022-11-19T15:20:26.943Z,98722.19
2022-11-19T15:24:35.035Z,98728.31
2022-11-19T15:28:36.393Z,98727.50
2022-11-19T15:32:43.786Z,98724.06
2022-11-19T15:36:47.012Z,98724.13
2022-11-19T15:40:50.037Z,98721.56
2022-11-19T15:44:59.226Z,98727.66
2022-11-19T15:49:13.305Z,98726.00
2022-11-19T15:53:17.540Z,98721.72
2022-11-19T15:57:19.180Z,98729.50
2022-11-19T16:01:21.757Z,98731.31
2022-11-19T16:05:23.221Z,98733.06
2022-11-19T16:09:25.275Z,98737.38
2022-11-19T16:13:45.734Z,98739.16
2022-11-19T16:17:47.582Z,98734.00
2022-11-19T16:22:03.531Z,98739.19
2022-11-19T16:26:04.919Z,98743.53
2022-11-19T16:30:06.659Z,98744.41
2022-11-19T16:34:12.830Z,98743.56
2022-11-19T16:38:16.153Z,98744.41
2022-11-19T16:42:19.832Z,98747.88
2022-11-19T16:46:22.823Z,98741.88
2022-11-19T16:50:24.769Z,98747.06
2022-11-19T16:54:45.506Z,98749.66
2022-11-19T16:58:47.014Z,98754.84
2022-11-19T17:02:49.203Z,98753.97
2022-11-19T17:06:50.494Z,98755.75
2022-11-19T17:11:30.699Z,98759.19
2022-11-19T17:15:34.960Z,98759.19
2022-11-19T17:19:36.910Z,98766.06
2022-11-19T17:23:46.523Z,98765.22
2022-11-19T17:27:58.620Z,98766.13
2022-11-19T17:32:03.300Z,98775.59
2022-11-19T17:36:12.196Z,98769.56
2022-11-19T17:40:13.606Z,98769.56
2022-11-19T17:44:40.465Z,98775.59
2022-11-19T17:48:42.791Z,98772.16
2022-11-19T17:52:44.303Z,98777.34
2022-11-19T17:56:45.574Z,98779.06
2022-11-19T18:00:47.190Z,98785.09
2022-11-19T18:04:48.507Z,98792.00
2022-11-19T18:08:49.864Z,98789.41
2022-11-19T18:12:51.199Z,98789.41
2022-11-19T18:16:52.754Z,98785.09
2022-11-19T18:20:58.928Z,98784.25
2022-11-19T18:25:10.543Z,98777.34
2022-11-19T18:29:12.093Z,98777.34
2022-11-19T18:33:13.928Z,98780.81
2022-11-19T18:37:15.196Z,98783.38
2022-11-19T18:41:18.911Z,98776.50
2022-11-19T18:45:20.281Z,98790.31
2022-11-19T18:49:21.951Z,98784.28
2022-11-19T18:53:23.380Z,98785.13
2022-11-19T18:57:24.913Z,98790.34
2022-11-19T19:01:26.364Z,98792.91
2022-11-19T19:05:28.120Z,98795.53
2022-11-19T19:09:29.649Z,98794.69
2022-11-19T19:13:31.251Z,98805.00
2022-11-19T19:17:32.617Z,98812.75
2022-11-19T19:21:34.046Z,98807.63
2022-11-19T19:25:35.673Z,98807.59
2022-11-19T19:29:37.397Z,98807.59
2022-11-19T19:33:39.184Z,98811.91
2022-11-19T19:37:42.525Z,98805.88
2022-11-19T19:41:43.854Z,98804.19
2022-11-19T19:45:45.664Z,98799.84
2022-11-19T19:49:49.573Z,98805.03
2022-11-19T19:53:52.893Z,98811.91
2022-11-19T19:57:57.724Z,98819.66
2022-11-19T20:01:59.281Z,98819.69
2022-11-19T20:06:01.084Z,98814.53
2022-11-19T20:10:03.041Z,98824.88
2022-11-19T20:14:04.817Z,98834.34
2022-11-19T20:18:06.158Z,98832.59
2022-11-19T20:22:07.420Z,98840.38
2022-11-19T20:26:16.797Z,98837.78
2022-11-19T20:30:18.138Z,98833.47
2022-11-19T20:34:19.572Z,98839.50
2022-11-19T20:38:21.180Z,98846.41
2022-11-19T20:42:41.357Z,98849.00
2022-11-19T20:46:42.826Z,98847.28
2022-11-19T20:50:44.206Z,98846.44
2022-11-19T20:54:45.480Z,98846.41
2022-11-19T20:58:46.829Z,98843.84
2022-11-19T21:02:48.106Z,98841.25
2022-11-19T21:06:51.337Z,98855.91
2022-11-19T21:10:59.671Z,98852.47
2022-11-19T21:15:04.653Z,98855.06
2022-11-19T21:19:06.007Z,98855.91
2022-11-19T21:23:07.350Z,98853.34
2022-11-19T21:27:09.230Z,98850.72
2022-11-19T21:31:13.345Z,98850.75
2022-11-19T21:35:15.735Z,98850.75
2022-11-19T21:39:18.534Z,98844.72
2022-11-19T21:43:20.527Z,98840.41
2022-11-19T21:47:21.959Z,98844.72
2022-11-19T21:51:25.104Z,98851.59
2022-11-19T21:55:26.738Z,98857.66
2022-11-19T21:59:28.043Z,98862.81
2022-11-19T22:03:32.755Z,98872.28
2022-11-19T22:07:34.412Z,98871.44
2022-11-19T22:11:35.775Z,98869.69
2022-11-19T22:15:37.078Z,98859.38
2022-11-19T22:19:38.439Z,98865.41
2022-11-19T22:23:41.147Z,98854.22
2022-11-19T22:27:42.550Z,98859.38
2022-11-19T22:31:43.887Z,98850.75
2022-11-19T22:35:45.331Z,98848.16
2022-11-19T22:39:47.043Z,98849.03
2022-11-19T22:43:49.211Z,98852.47
2022-11-19T22:47:50.505Z,98851.63
2022-11-19T22:51:52.066Z,98850.78
2022-11-19T22:55:53.351Z,98847.31
2022-11-19T22:59:54.684Z,98841.31
2022-11-19T23:03:56.996Z,98843.88
2022-11-19T23:07:58.315Z,98847.34
2022-11-19T23:12:32.082Z,98846.50
2022-11-19T23:16:33.384Z,98843.06
2022-11-19T23:20:34.668Z,98838.75
2022-11-19T23:24:36.051Z,98839.63
2022-11-19T23:28:38.064Z,98847.38
2022-11-19T23:32:40.858Z,98839.59
2022-11-19T23:36:42.391Z,98839.63
2022-11-19T23:40:44.983Z,98838.75
2022-11-19T23:44:46.289Z,98826.72
2022-11-19T23:48:48.371Z,98828.44
2022-11-19T23:52:49.644Z,98831.88
2022-11-19T23:56:50.999Z,98839.63
